Island Heights, New Jersey
Current Conditions -  °F | °C
As of 2:35 PM on Saturday 20 Dec 2014 (Local Time) from KMJX Reporting Station
Overcast Overcast  
Wind Chill: 29°   Ceiling: 2900
Heat Index: 34°   Visibility: 10mi
Dew Point: 23°   Wind: 6mph
Humidity: 65%   Direction: 350°N
Pressure: 30.26"   Gusts: NA
Location:  39.94°N, 74.15°W
Report Text: KMJX 201935Z AUTO 35005KT 10SM OVC029 01/M05 A3026 RMK AO1
Loading
Personal Weather Stations






























Interactive Weather Map New forecast layout! Learn more

10-Day Weather Forecast

Advertisements
Track Severe Weather on mobile